sensor_id;sensor_type;location;lat;lon;timestamp;P1;durP1;ratioP1;P2;durP2;ratioP2
77466;SDS011;66564;42.482;25.548;2024-03-02T00:00:57;31.20;;;15.45;;
77466;SDS011;66564;42.482;25.548;2024-03-02T00:03:23;28.35;;;15.32;;
77466;SDS011;66564;42.482;25.548;2024-03-02T00:05:49;27.90;;;15.95;;
77466;SDS011;66564;42.482;25.548;2024-03-02T00:08:17;32.97;;;15.10;;
77466;SDS011;66564;42.482;25.548;2024-03-02T00:10:51;27.33;;;15.65;;
77466;SDS011;66564;42.482;25.548;2024-03-02T00:13:16;32.42;;;15.40;;
77466;SDS011;66564;42.482;25.548;2024-03-02T00:15:48;33.72;;;14.68;;
77466;SDS011;66564;42.482;25.548;2024-03-02T00:18:21;28.75;;;14.48;;
77466;SDS011;66564;42.482;25.548;2024-03-02T00:20:56;32.75;;;14.70;;
77466;SDS011;66564;42.482;25.548;2024-03-02T00:23:23;33.40;;;15.15;;
77466;SDS011;66564;42.482;25.548;2024-03-02T00:25:50;30.77;;;14.55;;
77466;SDS011;66564;42.482;25.548;2024-03-02T00:28:22;28.73;;;15.38;;
77466;SDS011;66564;42.482;25.548;2024-03-02T00:31:04;31.35;;;14.70;;
77466;SDS011;66564;42.482;25.548;2024-03-02T00:33:37;34.28;;;16.58;;
77466;SDS011;66564;42.482;25.548;2024-03-02T00:36:06;42.13;;;16.90;;
77466;SDS011;66564;42.482;25.548;2024-03-02T00:38:33;33.47;;;16.35;;
77466;SDS011;66564;42.482;25.548;2024-03-02T00:41:00;38.13;;;17.67;;
77466;SDS011;66564;42.482;25.548;2024-03-02T00:43:42;37.83;;;17.95;;
77466;SDS011;66564;42.482;25.548;2024-03-02T00:46:12;37.75;;;17.30;;
77466;SDS011;66564;42.482;25.548;2024-03-02T00:48:42;33.85;;;15.77;;
77466;SDS011;66564;42.482;25.548;2024-03-02T00:51:13;39.03;;;18.70;;
77466;SDS011;66564;42.482;25.548;2024-03-02T00:53:39;34.42;;;16.55;;
77466;SDS011;66564;42.482;25.548;2024-03-02T00:56:04;36.80;;;16.30;;
77466;SDS011;66564;42.482;25.548;2024-03-02T01:01:00;33.77;;;16.57;;
77466;SDS011;66564;42.482;25.548;2024-03-02T01:03:25;35.80;;;16.00;;
77466;SDS011;66564;42.482;25.548;2024-03-02T01:05:51;32.05;;;17.52;;
77466;SDS011;66564;42.482;25.548;2024-03-02T01:08:16;37.58;;;16.45;;
77466;SDS011;66564;42.482;25.548;2024-03-02T01:10:41;33.40;;;16.00;;
77466;SDS011;66564;42.482;25.548;2024-03-02T01:13:07;37.65;;;15.38;;
77466;SDS011;66564;42.482;25.548;2024-03-02T01:15:33;38.10;;;16.90;;
77466;SDS011;66564;42.482;25.548;2024-03-02T01:17:58;41.63;;;16.98;;
77466;SDS011;66564;42.482;25.548;2024-03-02T01:20:24;38.10;;;17.23;;
77466;SDS011;66564;42.482;25.548;2024-03-02T01:22:50;40.25;;;18.13;;
77466;SDS011;66564;42.482;25.548;2024-03-02T01:25:15;40.28;;;16.92;;
77466;SDS011;66564;42.482;25.548;2024-03-02T01:27:41;43.67;;;17.60;;
77466;SDS011;66564;42.482;25.548;2024-03-02T01:30:06;40.97;;;18.15;;
77466;SDS011;66564;42.482;25.548;2024-03-02T01:32:32;43.15;;;16.90;;
77466;SDS011;66564;42.482;25.548;2024-03-02T01:34:58;45.03;;;17.90;;
77466;SDS011;66564;42.482;25.548;2024-03-02T01:37:23;43.10;;;16.20;;
77466;SDS011;66564;42.482;25.548;2024-03-02T01:39:49;58.03;;;23.08;;
77466;SDS011;66564;42.482;25.548;2024-03-02T01:42:14;53.38;;;19.75;;
77466;SDS011;66564;42.482;25.548;2024-03-02T01:44:40;47.45;;;18.33;;
77466;SDS011;66564;42.482;25.548;2024-03-02T01:47:05;39.92;;;17.33;;
77466;SDS011;66564;42.482;25.548;2024-03-02T01:49:31;47.85;;;17.88;;
77466;SDS011;66564;42.482;25.548;2024-03-02T01:51:59;43.90;;;17.20;;
77466;SDS011;66564;42.482;25.548;2024-03-02T01:54:24;43.30;;;17.42;;
77466;SDS011;66564;42.482;25.548;2024-03-02T01:56:50;42.17;;;16.35;;
77466;SDS011;66564;42.482;25.548;2024-03-02T01:59:16;37.42;;;15.88;;
77466;SDS011;66564;42.482;25.548;2024-03-02T02:01:41;45.15;;;18.17;;
77466;SDS011;66564;42.482;25.548;2024-03-02T02:04:07;43.75;;;18.13;;
77466;SDS011;66564;42.482;25.548;2024-03-02T02:06:32;48.33;;;18.58;;
77466;SDS011;66564;42.482;25.548;2024-03-02T02:08:58;45.58;;;17.95;;
77466;SDS011;66564;42.482;25.548;2024-03-02T02:11:24;47.92;;;18.73;;
77466;SDS011;66564;42.482;25.548;2024-03-02T02:13:49;55.67;;;18.83;;
77466;SDS011;66564;42.482;25.548;2024-03-02T02:16:15;53.13;;;19.92;;
77466;SDS011;66564;42.482;25.548;2024-03-02T02:18:40;49.35;;;20.40;;
77466;SDS011;66564;42.482;25.548;2024-03-02T02:21:06;48.95;;;18.88;;
77466;SDS011;66564;42.482;25.548;2024-03-02T02:23:31;46.08;;;18.17;;
77466;SDS011;66564;42.482;25.548;2024-03-02T02:25:57;46.38;;;19.73;;
77466;SDS011;66564;42.482;25.548;2024-03-02T02:28:22;45.42;;;19.67;;
77466;SDS011;66564;42.482;25.548;2024-03-02T02:30:48;50.05;;;19.40;;
77466;SDS011;66564;42.482;25.548;2024-03-02T02:33:13;47.03;;;17.20;;
77466;SDS011;66564;42.482;25.548;2024-03-02T02:35:38;39.65;;;16.38;;
77466;SDS011;66564;42.482;25.548;2024-03-02T02:38:06;35.33;;;16.45;;
77466;SDS011;66564;42.482;25.548;2024-03-02T02:40:32;43.60;;;17.88;;
77466;SDS011;66564;42.482;25.548;2024-03-02T02:42:58;45.45;;;18.38;;
77466;SDS011;66564;42.482;25.548;2024-03-02T02:45:26;38.42;;;16.70;;
77466;SDS011;66564;42.482;25.548;2024-03-02T02:47:51;47.78;;;18.75;;
77466;SDS011;66564;42.482;25.548;2024-03-02T02:50:17;42.08;;;16.63;;
77466;SDS011;66564;42.482;25.548;2024-03-02T02:52:42;37.22;;;16.67;;
77466;SDS011;66564;42.482;25.548;2024-03-02T02:55:09;38.30;;;17.15;;
77466;SDS011;66564;42.482;25.548;2024-03-02T02:57:36;37.72;;;15.77;;
77466;SDS011;66564;42.482;25.548;2024-03-02T03:00:06;39.90;;;16.35;;
77466;SDS011;66564;42.482;25.548;2024-03-02T03:02:39;34.05;;;14.52;;
77466;SDS011;66564;42.482;25.548;2024-03-02T03:05:08;31.15;;;15.38;;
77466;SDS011;66564;42.482;25.548;2024-03-02T03:07:35;33.78;;;14.85;;
77466;SDS011;66564;42.482;25.548;2024-03-02T03:10:07;33.70;;;15.82;;
77466;SDS011;66564;42.482;25.548;2024-03-02T03:12:33;33.85;;;15.75;;
77466;SDS011;66564;42.482;25.548;2024-03-02T03:15:01;32.13;;;15.40;;
77466;SDS011;66564;42.482;25.548;2024-03-02T03:17:29;33.83;;;14.55;;
77466;SDS011;66564;42.482;25.548;2024-03-02T03:19:55;31.30;;;14.02;;
77466;SDS011;66564;42.482;25.548;2024-03-02T03:22:20;35.38;;;15.88;;
77466;SDS011;66564;42.482;25.548;2024-03-02T03:24:46;32.90;;;15.65;;
77466;SDS011;66564;42.482;25.548;2024-03-02T03:27:11;34.95;;;16.23;;
77466;SDS011;66564;42.482;25.548;2024-03-02T03:29:37;35.35;;;14.93;;
77466;SDS011;66564;42.482;25.548;2024-03-02T03:32:03;37.47;;;16.40;;
77466;SDS011;66564;42.482;25.548;2024-03-02T03:34:32;33.83;;;14.88;;
77466;SDS011;66564;42.482;25.548;2024-03-02T03:36:57;35.95;;;15.40;;
77466;SDS011;66564;42.482;25.548;2024-03-02T03:39:23;37.13;;;15.50;;
77466;SDS011;66564;42.482;25.548;2024-03-02T03:41:49;37.38;;;15.02;;
77466;SDS011;66564;42.482;25.548;2024-03-02T03:44:14;34.63;;;16.45;;
77466;SDS011;66564;42.482;25.548;2024-03-02T03:46:40;35.53;;;17.52;;
77466;SDS011;66564;42.482;25.548;2024-03-02T03:49:06;39.17;;;16.70;;
77466;SDS011;66564;42.482;25.548;2024-03-02T03:51:33;38.22;;;15.88;;
77466;SDS011;66564;42.482;25.548;2024-03-02T03:53:58;35.30;;;15.43;;
77466;SDS011;66564;42.482;25.548;2024-03-02T03:56:24;34.95;;;17.20;;
77466;SDS011;66564;42.482;25.548;2024-03-02T03:58:50;33.83;;;15.40;;
77466;SDS011;66564;42.482;25.548;2024-03-02T04:01:15;38.83;;;17.33;;
77466;SDS011;66564;42.482;25.548;2024-03-02T04:03:41;38.47;;;17.10;;
77466;SDS011;66564;42.482;25.548;2024-03-02T04:06:06;41.45;;;17.50;;
77466;SDS011;66564;42.482;25.548;2024-03-02T04:08:32;38.05;;;16.65;;
77466;SDS011;66564;42.482;25.548;2024-03-02T04:10:57;33.03;;;15.90;;
77466;SDS011;66564;42.482;25.548;2024-03-02T04:13:23;36.85;;;16.48;;
77466;SDS011;66564;42.482;25.548;2024-03-02T04:15:48;35.85;;;16.77;;
77466;SDS011;66564;42.482;25.548;2024-03-02T04:18:13;36.50;;;17.17;;
77466;SDS011;66564;42.482;25.548;2024-03-02T04:20:39;34.92;;;16.58;;
77466;SDS011;66564;42.482;25.548;2024-03-02T04:23:04;41.95;;;18.23;;
77466;SDS011;66564;42.482;25.548;2024-03-02T04:25:30;36.53;;;16.45;;
77466;SDS011;66564;42.482;25.548;2024-03-02T04:27:55;40.90;;;18.88;;
77466;SDS011;66564;42.482;25.548;2024-03-02T04:30:21;40.67;;;18.73;;
77466;SDS011;66564;42.482;25.548;2024-03-02T04:32:46;44.35;;;18.65;;
77466;SDS011;66564;42.482;25.548;2024-03-02T04:35:12;36.42;;;17.55;;
77466;SDS011;66564;42.482;25.548;2024-03-02T04:37:38;39.75;;;18.10;;
77466;SDS011;66564;42.482;25.548;2024-03-02T04:40:04;37.38;;;16.95;;
77466;SDS011;66564;42.482;25.548;2024-03-02T04:42:33;32.97;;;16.15;;
77466;SDS011;66564;42.482;25.548;2024-03-02T04:44:59;33.92;;;16.27;;
77466;SDS011;66564;42.482;25.548;2024-03-02T04:47:25;36.72;;;16.70;;
77466;SDS011;66564;42.482;25.548;2024-03-02T04:49:50;28.08;;;13.93;;
77466;SDS011;66564;42.482;25.548;2024-03-02T04:52:16;35.38;;;16.25;;
77466;SDS011;66564;42.482;25.548;2024-03-02T04:54:42;35.92;;;17.08;;
77466;SDS011;66564;42.482;25.548;2024-03-02T04:57:26;30.30;;;16.23;;
77466;SDS011;66564;42.482;25.548;2024-03-02T04:59:51;32.90;;;16.20;;
77466;SDS011;66564;42.482;25.548;2024-03-02T05:02:17;33.72;;;16.55;;
77466;SDS011;66564;42.482;25.548;2024-03-02T05:04:42;37.45;;;15.48;;
77466;SDS011;66564;42.482;25.548;2024-03-02T05:07:08;44.35;;;17.15;;
77466;SDS011;66564;42.482;25.548;2024-03-02T05:09:33;46.95;;;18.38;;
77466;SDS011;66564;42.482;25.548;2024-03-02T05:11:58;54.58;;;20.05;;
77466;SDS011;66564;42.482;25.548;2024-03-02T05:14:40;52.35;;;19.52;;
77466;SDS011;66564;42.482;25.548;2024-03-02T05:17:06;51.17;;;17.73;;
77466;SDS011;66564;42.482;25.548;2024-03-02T05:19:31;55.55;;;21.67;;
77466;SDS011;66564;42.482;25.548;2024-03-02T05:21:56;51.90;;;21.55;;
77466;SDS011;66564;42.482;25.548;2024-03-02T05:24:22;52.75;;;20.48;;
77466;SDS011;66564;42.482;25.548;2024-03-02T05:26:47;58.60;;;21.70;;
77466;SDS011;66564;42.482;25.548;2024-03-02T05:29:14;58.38;;;21.55;;
77466;SDS011;66564;42.482;25.548;2024-03-02T05:31:39;66.50;;;22.92;;
77466;SDS011;66564;42.482;25.548;2024-03-02T05:34:05;69.07;;;23.00;;
77466;SDS011;66564;42.482;25.548;2024-03-02T05:36:31;72.70;;;26.45;;
77466;SDS011;66564;42.482;25.548;2024-03-02T05:38:57;69.07;;;23.38;;
77466;SDS011;66564;42.482;25.548;2024-03-02T05:41:22;74.70;;;26.75;;
77466;SDS011;66564;42.482;25.548;2024-03-02T05:43:48;68.70;;;24.10;;
77466;SDS011;66564;42.482;25.548;2024-03-02T05:46:14;74.53;;;25.15;;
77466;SDS011;66564;42.482;25.548;2024-03-02T05:48:40;66.32;;;25.77;;
77466;SDS011;66564;42.482;25.548;2024-03-02T05:51:05;72.55;;;24.30;;
77466;SDS011;66564;42.482;25.548;2024-03-02T05:53:30;64.38;;;22.30;;
77466;SDS011;66564;42.482;25.548;2024-03-02T05:55:56;63.58;;;22.90;;
77466;SDS011;66564;42.482;25.548;2024-03-02T05:58:22;64.82;;;23.02;;
77466;SDS011;66564;42.482;25.548;2024-03-02T06:01:03;73.68;;;25.17;;
77466;SDS011;66564;42.482;25.548;2024-03-02T06:03:30;62.05;;;23.75;;
77466;SDS011;66564;42.482;25.548;2024-03-02T06:05:55;61.03;;;22.38;;
77466;SDS011;66564;42.482;25.548;2024-03-02T06:08:21;72.30;;;25.52;;
77466;SDS011;66564;42.482;25.548;2024-03-02T06:10:46;72.53;;;25.60;;
77466;SDS011;66564;42.482;25.548;2024-03-02T06:13:13;75.40;;;24.17;;
77466;SDS011;66564;42.482;25.548;2024-03-02T06:15:38;64.00;;;23.02;;
77466;SDS011;66564;42.482;25.548;2024-03-02T06:18:04;58.33;;;23.27;;
77466;SDS011;66564;42.482;25.548;2024-03-02T06:20:31;70.93;;;25.20;;
77466;SDS011;66564;42.482;25.548;2024-03-02T06:22:57;63.25;;;24.17;;
77466;SDS011;66564;42.482;25.548;2024-03-02T06:25:22;56.67;;;22.00;;
77466;SDS011;66564;42.482;25.548;2024-03-02T06:27:48;58.92;;;23.42;;
77466;SDS011;66564;42.482;25.548;2024-03-02T06:30:13;62.22;;;24.60;;
77466;SDS011;66564;42.482;25.548;2024-03-02T06:32:39;67.38;;;25.30;;
77466;SDS011;66564;42.482;25.548;2024-03-02T06:35:04;55.03;;;22.48;;
77466;SDS011;66564;42.482;25.548;2024-03-02T06:37:32;49.75;;;20.23;;
77466;SDS011;66564;42.482;25.548;2024-03-02T06:39:58;58.72;;;22.70;;
77466;SDS011;66564;42.482;25.548;2024-03-02T06:42:23;62.90;;;22.33;;
77466;SDS011;66564;42.482;25.548;2024-03-02T06:44:49;62.58;;;23.88;;
77466;SDS011;66564;42.482;25.548;2024-03-02T06:47:15;55.97;;;22.73;;
77466;SDS011;66564;42.482;25.548;2024-03-02T06:49:41;57.88;;;22.40;;
77466;SDS011;66564;42.482;25.548;2024-03-02T06:52:07;56.38;;;22.55;;
77466;SDS011;66564;42.482;25.548;2024-03-02T06:54:33;51.05;;;21.42;;
77466;SDS011;66564;42.482;25.548;2024-03-02T06:56:59;62.63;;;24.45;;
77466;SDS011;66564;42.482;25.548;2024-03-02T06:59:25;60.90;;;22.85;;
77466;SDS011;66564;42.482;25.548;2024-03-02T07:01:50;54.78;;;23.98;;
77466;SDS011;66564;42.482;25.548;2024-03-02T07:04:16;47.85;;;19.83;;
77466;SDS011;66564;42.482;25.548;2024-03-02T07:06:41;46.63;;;20.02;;
77466;SDS011;66564;42.482;25.548;2024-03-02T07:09:07;46.25;;;17.60;;
77466;SDS011;66564;42.482;25.548;2024-03-02T07:11:36;42.20;;;16.15;;
77466;SDS011;66564;42.482;25.548;2024-03-02T07:14:01;34.20;;;15.40;;
77466;SDS011;66564;42.482;25.548;2024-03-02T07:16:27;30.50;;;15.88;;
77466;SDS011;66564;42.482;25.548;2024-03-02T07:18:58;40.63;;;18.52;;
77466;SDS011;66564;42.482;25.548;2024-03-02T07:21:25;39.80;;;18.73;;
77466;SDS011;66564;42.482;25.548;2024-03-02T07:23:51;48.90;;;20.27;;
77466;SDS011;66564;42.482;25.548;2024-03-02T07:26:16;44.33;;;20.63;;
77466;SDS011;66564;42.482;25.548;2024-03-02T07:28:43;45.13;;;19.92;;
77466;SDS011;66564;42.482;25.548;2024-03-02T07:31:10;46.53;;;19.77;;
77466;SDS011;66564;42.482;25.548;2024-03-02T07:33:36;47.67;;;19.10;;
77466;SDS011;66564;42.482;25.548;2024-03-02T07:36:01;53.13;;;20.77;;
77466;SDS011;66564;42.482;25.548;2024-03-02T07:38:28;47.05;;;21.73;;
77466;SDS011;66564;42.482;25.548;2024-03-02T07:40:54;56.08;;;20.90;;
77466;SDS011;66564;42.482;25.548;2024-03-02T07:43:20;47.40;;;18.92;;
77466;SDS011;66564;42.482;25.548;2024-03-02T07:45:46;48.08;;;19.15;;
77466;SDS011;66564;42.482;25.548;2024-03-02T07:48:12;51.60;;;23.02;;
77466;SDS011;66564;42.482;25.548;2024-03-02T07:50:38;51.05;;;23.05;;
77466;SDS011;66564;42.482;25.548;2024-03-02T07:53:04;49.70;;;20.02;;
77466;SDS011;66564;42.482;25.548;2024-03-02T07:55:30;59.65;;;24.08;;
77466;SDS011;66564;42.482;25.548;2024-03-02T07:57:56;51.15;;;19.75;;
77466;SDS011;66564;42.482;25.548;2024-03-02T08:00:22;48.20;;;19.95;;
77466;SDS011;66564;42.482;25.548;2024-03-02T08:02:49;48.03;;;19.80;;
77466;SDS011;66564;42.482;25.548;2024-03-02T08:05:18;46.60;;;18.80;;
77466;SDS011;66564;42.482;25.548;2024-03-02T08:07:44;37.83;;;18.35;;
77466;SDS011;66564;42.482;25.548;2024-03-02T08:10:10;45.42;;;19.42;;
77466;SDS011;66564;42.482;25.548;2024-03-02T08:12:36;46.42;;;18.20;;
77466;SDS011;66564;42.482;25.548;2024-03-02T08:15:01;49.67;;;21.13;;
77466;SDS011;66564;42.482;25.548;2024-03-02T08:17:27;44.53;;;19.50;;
77466;SDS011;66564;42.482;25.548;2024-03-02T08:19:52;45.13;;;19.40;;
77466;SDS011;66564;42.482;25.548;2024-03-02T08:22:18;50.90;;;20.30;;
77466;SDS011;66564;42.482;25.548;2024-03-02T08:24:44;47.50;;;20.70;;
77466;SDS011;66564;42.482;25.548;2024-03-02T08:27:10;48.70;;;20.05;;
77466;SDS011;66564;42.482;25.548;2024-03-02T08:29:36;51.78;;;22.75;;
77466;SDS011;66564;42.482;25.548;2024-03-02T08:32:01;50.85;;;21.42;;
77466;SDS011;66564;42.482;25.548;2024-03-02T08:34:27;50.20;;;22.55;;
77466;SDS011;66564;42.482;25.548;2024-03-02T08:36:53;52.58;;;19.25;;
77466;SDS011;66564;42.482;25.548;2024-03-02T08:39:18;45.42;;;21.33;;
77466;SDS011;66564;42.482;25.548;2024-03-02T08:41:44;56.30;;;22.40;;
77466;SDS011;66564;42.482;25.548;2024-03-02T08:44:10;45.70;;;19.90;;
77466;SDS011;66564;42.482;25.548;2024-03-02T08:46:36;44.42;;;20.58;;
77466;SDS011;66564;42.482;25.548;2024-03-02T08:49:02;43.97;;;19.58;;
77466;SDS011;66564;42.482;25.548;2024-03-02T08:51:29;45.47;;;18.92;;
77466;SDS011;66564;42.482;25.548;2024-03-02T08:53:55;48.60;;;18.17;;
77466;SDS011;66564;42.482;25.548;2024-03-02T08:56:20;45.78;;;19.85;;
77466;SDS011;66564;42.482;25.548;2024-03-02T08:58:46;42.40;;;19.35;;
77466;SDS011;66564;42.482;25.548;2024-03-02T09:01:12;42.33;;;18.73;;
77466;SDS011;66564;42.482;25.548;2024-03-02T09:03:37;42.08;;;18.60;;
77466;SDS011;66564;42.482;25.548;2024-03-02T09:06:03;41.55;;;18.50;;
77466;SDS011;66564;42.482;25.548;2024-03-02T09:08:29;43.25;;;18.70;;
77466;SDS011;66564;42.482;25.548;2024-03-02T09:10:54;45.78;;;19.75;;
77466;SDS011;66564;42.482;25.548;2024-03-02T09:13:21;39.75;;;19.13;;
77466;SDS011;66564;42.482;25.548;2024-03-02T09:15:47;40.25;;;16.73;;
77466;SDS011;66564;42.482;25.548;2024-03-02T09:18:13;43.95;;;18.13;;
77466;SDS011;66564;42.482;25.548;2024-03-02T09:20:38;41.92;;;17.98;;
77466;SDS011;66564;42.482;25.548;2024-03-02T09:23:04;38.72;;;18.58;;
77466;SDS011;66564;42.482;25.548;2024-03-02T09:25:29;41.78;;;20.02;;
77466;SDS011;66564;42.482;25.548;2024-03-02T09:27:55;39.90;;;18.33;;
77466;SDS011;66564;42.482;25.548;2024-03-02T09:30:22;44.47;;;19.50;;
77466;SDS011;66564;42.482;25.548;2024-03-02T09:32:48;39.70;;;18.48;;
77466;SDS011;66564;42.482;25.548;2024-03-02T09:35:13;33.95;;;17.95;;
77466;SDS011;66564;42.482;25.548;2024-03-02T09:37:39;42.38;;;19.17;;
77466;SDS011;66564;42.482;25.548;2024-03-02T09:40:05;46.58;;;18.45;;
77466;SDS011;66564;42.482;25.548;2024-03-02T09:42:31;40.72;;;19.42;;
77466;SDS011;66564;42.482;25.548;2024-03-02T09:44:57;43.05;;;20.45;;
77466;SDS011;66564;42.482;25.548;2024-03-02T09:47:23;48.45;;;19.70;;
77466;SDS011;66564;42.482;25.548;2024-03-02T09:49:48;49.75;;;19.50;;
77466;SDS011;66564;42.482;25.548;2024-03-02T09:52:14;42.33;;;19.08;;
77466;SDS011;66564;42.482;25.548;2024-03-02T09:54:41;42.35;;;19.30;;
77466;SDS011;66564;42.482;25.548;2024-03-02T09:57:06;45.97;;;19.52;;
77466;SDS011;66564;42.482;25.548;2024-03-02T09:59:32;44.80;;;19.17;;
77466;SDS011;66564;42.482;25.548;2024-03-02T10:01:58;49.13;;;21.35;;
77466;SDS011;66564;42.482;25.548;2024-03-02T10:04:28;36.40;;;18.00;;
77466;SDS011;66564;42.482;25.548;2024-03-02T10:09:42;35.40;;;17.00;;
77466;SDS011;66564;42.482;25.548;2024-03-02T10:12:10;37.10;;;17.10;;
77466;SDS011;66564;42.482;25.548;2024-03-02T10:14:39;38.78;;;18.60;;
77466;SDS011;66564;42.482;25.548;2024-03-02T10:17:09;45.10;;;20.58;;
77466;SDS011;66564;42.482;25.548;2024-03-02T10:19:38;40.13;;;18.45;;
77466;SDS011;66564;42.482;25.548;2024-03-02T10:22:05;54.00;;;20.15;;
77466;SDS011;66564;42.482;25.548;2024-03-02T10:24:39;37.92;;;18.33;;
77466;SDS011;66564;42.482;25.548;2024-03-02T10:27:10;39.47;;;17.75;;
77466;SDS011;66564;42.482;25.548;2024-03-02T10:29:56;41.42;;;18.38;;
77466;SDS011;66564;42.482;25.548;2024-03-02T10:32:22;38.08;;;19.42;;
77466;SDS011;66564;42.482;25.548;2024-03-02T10:34:48;60.58;;;33.03;;
77466;SDS011;66564;42.482;25.548;2024-03-02T10:37:15;37.17;;;19.73;;
77466;SDS011;66564;42.482;25.548;2024-03-02T10:39:42;35.40;;;18.00;;
77466;SDS011;66564;42.482;25.548;2024-03-02T10:42:08;35.90;;;19.25;;
77466;SDS011;66564;42.482;25.548;2024-03-02T10:44:34;34.78;;;19.10;;
77466;SDS011;66564;42.482;25.548;2024-03-02T10:47:00;79.40;;;41.50;;
77466;SDS011;66564;42.482;25.548;2024-03-02T10:49:29;96.70;;;52.88;;
77466;SDS011;66564;42.482;25.548;2024-03-02T10:51:55;39.03;;;20.63;;
77466;SDS011;66564;42.482;25.548;2024-03-02T10:54:21;47.97;;;25.00;;
77466;SDS011;66564;42.482;25.548;2024-03-02T10:59:27;39.55;;;20.60;;
77466;SDS011;66564;42.482;25.548;2024-03-02T11:02:04;66.13;;;37.30;;
77466;SDS011;66564;42.482;25.548;2024-03-02T11:04:33;55.53;;;32.08;;
77466;SDS011;66564;42.482;25.548;2024-03-02T11:07:02;68.43;;;37.83;;
77466;SDS011;66564;42.482;25.548;2024-03-02T11:09:30;29.70;;;18.88;;
77466;SDS011;66564;42.482;25.548;2024-03-02T11:14:43;58.75;;;36.30;;
77466;SDS011;66564;42.482;25.548;2024-03-02T11:17:08;53.30;;;29.70;;
77466;SDS011;66564;42.482;25.548;2024-03-02T11:19:35;49.72;;;20.30;;
77466;SDS011;66564;42.482;25.548;2024-03-02T11:22:03;39.47;;;21.45;;
77466;SDS011;66564;42.482;25.548;2024-03-02T11:24:30;45.53;;;21.63;;
77466;SDS011;66564;42.482;25.548;2024-03-02T11:27:03;39.13;;;21.83;;
77466;SDS011;66564;42.482;25.548;2024-03-02T11:32:17;57.75;;;31.98;;
77466;SDS011;66564;42.482;25.548;2024-03-02T11:34:47;39.25;;;23.83;;
77466;SDS011;66564;42.482;25.548;2024-03-02T11:37:15;45.40;;;29.13;;
77466;SDS011;66564;42.482;25.548;2024-03-02T11:39:41;62.88;;;36.30;;
77466;SDS011;66564;42.482;25.548;2024-03-02T11:42:08;41.58;;;26.30;;
77466;SDS011;66564;42.482;25.548;2024-03-02T11:44:35;49.38;;;31.88;;
77466;SDS011;66564;42.482;25.548;2024-03-02T11:47:02;45.88;;;26.80;;
77466;SDS011;66564;42.482;25.548;2024-03-02T11:49:39;47.38;;;29.85;;
77466;SDS011;66564;42.482;25.548;2024-03-02T11:52:06;40.63;;;19.90;;
77466;SDS011;66564;42.482;25.548;2024-03-02T11:54:34;42.45;;;24.63;;
77466;SDS011;66564;42.482;25.548;2024-03-02T11:57:02;40.92;;;21.58;;
77466;SDS011;66564;42.482;25.548;2024-03-02T11:59:28;52.83;;;34.30;;
77466;SDS011;66564;42.482;25.548;2024-03-02T12:01:55;46.15;;;29.42;;
77466;SDS011;66564;42.482;25.548;2024-03-02T12:04:21;40.78;;;18.55;;
77466;SDS011;66564;42.482;25.548;2024-03-02T12:06:47;34.60;;;18.25;;
77466;SDS011;66564;42.482;25.548;2024-03-02T12:09:20;46.30;;;27.75;;
77466;SDS011;66564;42.482;25.548;2024-03-02T12:11:46;39.05;;;23.85;;
77466;SDS011;66564;42.482;25.548;2024-03-02T12:14:11;34.88;;;18.95;;
77466;SDS011;66564;42.482;25.548;2024-03-02T12:16:44;34.67;;;19.45;;
77466;SDS011;66564;42.482;25.548;2024-03-02T12:19:09;38.03;;;22.08;;
77466;SDS011;66564;42.482;25.548;2024-03-02T12:21:35;41.25;;;23.50;;
77466;SDS011;66564;42.482;25.548;2024-03-02T12:24:01;37.17;;;20.10;;
77466;SDS011;66564;42.482;25.548;2024-03-02T12:26:27;30.92;;;18.95;;
77466;SDS011;66564;42.482;25.548;2024-03-02T12:28:53;34.63;;;20.77;;
77466;SDS011;66564;42.482;25.548;2024-03-02T12:31:19;39.03;;;23.50;;
77466;SDS011;66564;42.482;25.548;2024-03-02T12:33:45;29.88;;;19.05;;
77466;SDS011;66564;42.482;25.548;2024-03-02T12:36:13;39.20;;;25.55;;
77466;SDS011;66564;42.482;25.548;2024-03-02T12:38:42;41.15;;;25.38;;
77466;SDS011;66564;42.482;25.548;2024-03-02T12:41:08;33.15;;;17.95;;
77466;SDS011;66564;42.482;25.548;2024-03-02T12:43:34;40.50;;;22.55;;
77466;SDS011;66564;42.482;25.548;2024-03-02T12:45:59;32.45;;;19.05;;
77466;SDS011;66564;42.482;25.548;2024-03-02T12:48:25;37.53;;;19.48;;
77466;SDS011;66564;42.482;25.548;2024-03-02T12:50:51;38.63;;;23.30;;
77466;SDS011;66564;42.482;25.548;2024-03-02T12:53:16;36.42;;;18.17;;
77466;SDS011;66564;42.482;25.548;2024-03-02T12:55:42;36.05;;;18.95;;
77466;SDS011;66564;42.482;25.548;2024-03-02T12:58:16;37.58;;;26.67;;
77466;SDS011;66564;42.482;25.548;2024-03-02T13:00:42;43.88;;;22.88;;
77466;SDS011;66564;42.482;25.548;2024-03-02T13:03:07;32.40;;;20.45;;
77466;SDS011;66564;42.482;25.548;2024-03-02T13:05:33;49.47;;;24.52;;
77466;SDS011;66564;42.482;25.548;2024-03-02T13:07:58;54.30;;;22.23;;
77466;SDS011;66564;42.482;25.548;2024-03-02T13:10:28;41.15;;;21.33;;
77466;SDS011;66564;42.482;25.548;2024-03-02T13:12:54;40.63;;;21.55;;
77466;SDS011;66564;42.482;25.548;2024-03-02T13:15:21;34.10;;;22.02;;
77466;SDS011;66564;42.482;25.548;2024-03-02T13:17:46;39.17;;;21.65;;
77466;SDS011;66564;42.482;25.548;2024-03-02T13:20:12;35.33;;;18.67;;
77466;SDS011;66564;42.482;25.548;2024-03-02T13:22:39;43.58;;;21.60;;
77466;SDS011;66564;42.482;25.548;2024-03-02T13:25:05;37.55;;;21.42;;
77466;SDS011;66564;42.482;25.548;2024-03-02T13:27:33;41.97;;;24.10;;
77466;SDS011;66564;42.482;25.548;2024-03-02T13:29:59;37.17;;;20.88;;
77466;SDS011;66564;42.482;25.548;2024-03-02T13:32:25;39.95;;;20.55;;
77466;SDS011;66564;42.482;25.548;2024-03-02T13:34:51;36.13;;;20.27;;
77466;SDS011;66564;42.482;25.548;2024-03-02T13:37:16;36.15;;;20.65;;
77466;SDS011;66564;42.482;25.548;2024-03-02T13:39:42;34.28;;;19.67;;
77466;SDS011;66564;42.482;25.548;2024-03-02T13:42:08;36.78;;;19.35;;
77466;SDS011;66564;42.482;25.548;2024-03-02T13:44:34;36.40;;;20.73;;
77466;SDS011;66564;42.482;25.548;2024-03-02T13:47:00;35.53;;;19.38;;
77466;SDS011;66564;42.482;25.548;2024-03-02T13:49:26;37.00;;;21.23;;
77466;SDS011;66564;42.482;25.548;2024-03-02T13:51:59;35.28;;;18.83;;
77466;SDS011;66564;42.482;25.548;2024-03-02T13:54:28;33.92;;;19.45;;
77466;SDS011;66564;42.482;25.548;2024-03-02T13:56:53;33.50;;;19.70;;
77466;SDS011;66564;42.482;25.548;2024-03-02T13:59:42;38.08;;;20.75;;
77466;SDS011;66564;42.482;25.548;2024-03-02T14:02:08;41.40;;;21.17;;
77466;SDS011;66564;42.482;25.548;2024-03-02T14:04:34;43.67;;;20.27;;
77466;SDS011;66564;42.482;25.548;2024-03-02T14:07:00;40.75;;;21.08;;
77466;SDS011;66564;42.482;25.548;2024-03-02T14:09:26;37.22;;;19.40;;
77466;SDS011;66564;42.482;25.548;2024-03-02T14:11:53;40.72;;;20.15;;
77466;SDS011;66564;42.482;25.548;2024-03-02T14:14:19;36.60;;;20.25;;
77466;SDS011;66564;42.482;25.548;2024-03-02T14:16:45;32.92;;;19.25;;
77466;SDS011;66564;42.482;25.548;2024-03-02T14:19:11;34.65;;;19.60;;